createdAt,value
2023-02-11T00:00:09.980Z,6.40
2023-02-11T00:02:54.877Z,6.43
2023-02-11T00:05:26.885Z,6.20
2023-02-11T00:08:02.453Z,6.00
2023-02-11T00:10:32.134Z,6.23
2023-02-11T00:13:01.261Z,6.90
2023-02-11T00:15:35.595Z,5.80
2023-02-11T00:18:05.440Z,5.23
2023-02-11T00:20:35.133Z,6.20
2023-02-11T00:23:05.085Z,6.33
2023-02-11T00:25:36.959Z,5.87
2023-02-11T00:28:10.653Z,6.03
2023-02-11T00:30:44.129Z,6.50
2023-02-11T00:33:12.451Z,5.80
2023-02-11T00:38:24.559Z,5.40
2023-02-11T00:40:56.963Z,5.43
2023-02-11T00:43:24.422Z,4.57
2023-02-11T00:45:56.894Z,5.50
2023-02-11T00:48:29.785Z,4.67
2023-02-11T00:50:59.701Z,4.70
2023-02-11T00:53:30.544Z,4.70
2023-02-11T00:56:12.607Z,4.80
2023-02-11T00:58:44.538Z,3.73
2023-02-11T01:01:16.263Z,4.53
2023-02-11T01:03:46.305Z,4.20
2023-02-11T01:06:15.666Z,4.50
2023-02-11T01:08:44.498Z,4.80
2023-02-11T01:11:21.343Z,6.33
2023-02-11T01:13:53.296Z,4.50
2023-02-11T01:16:24.307Z,5.93
2023-02-11T01:18:57.661Z,6.33
2023-02-11T01:21:27.664Z,4.53
2023-02-11T01:23:58.436Z,6.23
2023-02-11T01:26:30.030Z,5.93
2023-02-11T01:29:03.043Z,3.67
2023-02-11T01:31:35.699Z,6.07
2023-02-11T01:34:05.934Z,4.17
2023-02-11T01:36:33.538Z,4.83
2023-02-11T01:39:03.711Z,4.00
2023-02-11T01:41:36.318Z,4.30
2023-02-11T01:44:25.522Z,4.17
2023-02-11T01:46:57.797Z,3.77
2023-02-11T01:49:47.156Z,4.40
2023-02-11T01:52:33.373Z,4.50
2023-02-11T01:55:23.666Z,3.57
2023-02-11T01:57:59.923Z,4.13
2023-02-11T02:00:30.050Z,5.23
2023-02-11T02:03:16.592Z,4.77
2023-02-11T02:06:07.796Z,3.73
2023-02-11T02:08:52.390Z,4.60
2023-02-11T02:11:20.552Z,4.33
2023-02-11T02:13:52.552Z,5.30
2023-02-11T02:16:23.997Z,4.53
2023-02-11T02:19:03.776Z,5.37
2023-02-11T02:21:52.059Z,3.73
2023-02-11T02:24:30.530Z,3.17
2023-02-11T02:27:20.142Z,3.80
2023-02-11T02:30:09.995Z,3.43
2023-02-11T02:32:41.489Z,3.97
2023-02-11T02:38:02.110Z,4.73
2023-02-11T02:40:38.730Z,5.07
2023-02-11T02:43:10.055Z,3.47
2023-02-11T02:45:40.416Z,4.67
2023-02-11T02:48:08.860Z,3.50
2023-02-11T02:50:40.586Z,3.43
2023-02-11T02:53:29.891Z,4.37
2023-02-11T02:56:22.021Z,2.90
2023-02-11T02:59:10.385Z,3.67
2023-02-11T03:01:43.915Z,3.00
2023-02-11T03:04:36.264Z,3.40
2023-02-11T03:07:11.514Z,3.17
2023-02-11T03:09:46.335Z,3.43
2023-02-11T03:12:19.639Z,4.53
2023-02-11T03:14:52.870Z,3.23
2023-02-11T03:17:24.881Z,3.30
2023-02-11T03:19:57.080Z,4.10
2023-02-11T03:22:33.018Z,3.67
2023-02-11T03:25:06.994Z,2.90
2023-02-11T03:30:34.982Z,2.50
2023-02-11T03:33:08.545Z,4.20
2023-02-11T03:35:40.209Z,3.90
2023-02-11T03:38:32.809Z,4.07
2023-02-11T03:41:06.719Z,3.00
2023-02-11T03:43:36.256Z,3.30
2023-02-11T03:46:11.863Z,3.47
2023-02-11T03:48:46.951Z,2.97
2023-02-11T03:51:15.892Z,4.20
2023-02-11T03:53:46.697Z,4.17
2023-02-11T03:56:21.649Z,3.60
2023-02-11T03:58:54.232Z,2.40
2023-02-11T04:01:27.641Z,3.50
2023-02-11T04:03:58.469Z,2.77
2023-02-11T04:06:28.318Z,3.23
2023-02-11T04:08:58.803Z,2.90
2023-02-11T04:11:29.102Z,3.17
2023-02-11T04:14:00.060Z,1.73
2023-02-11T04:16:31.977Z,2.50
2023-02-11T04:19:07.085Z,4.60
2023-02-11T04:21:38.485Z,2.83
2023-02-11T04:24:10.847Z,3.37
2023-02-11T04:26:42.212Z,2.87
2023-02-11T04:29:13.695Z,3.13
2023-02-11T04:31:41.039Z,3.23
2023-02-11T04:34:15.116Z,2.70
2023-02-11T04:36:46.837Z,2.00
2023-02-11T04:39:18.062Z,3.33
2023-02-11T04:41:47.937Z,2.90
2023-02-11T04:44:18.454Z,2.17
2023-02-11T04:46:49.000Z,3.83
2023-02-11T04:49:19.530Z,2.73
2023-02-11T04:51:49.484Z,2.63
2023-02-11T04:54:24.469Z,2.53
2023-02-11T04:56:56.645Z,3.20
2023-02-11T04:59:28.273Z,2.30
2023-02-11T05:01:59.548Z,3.10
2023-02-11T05:04:31.497Z,2.83
2023-02-11T05:07:03.823Z,3.87
2023-02-11T05:09:36.094Z,2.67
2023-02-11T05:12:08.199Z,2.70
2023-02-11T05:14:36.839Z,3.30
2023-02-11T05:17:06.223Z,2.17
2023-02-11T05:19:39.379Z,2.03
2023-02-11T05:22:10.543Z,2.60
2023-02-11T05:24:42.496Z,2.70
2023-02-11T05:27:12.986Z,3.63
2023-02-11T05:29:46.726Z,3.33
2023-02-11T05:32:17.494Z,3.20
2023-02-11T05:34:48.280Z,2.70
2023-02-11T05:37:18.508Z,3.80
2023-02-11T05:39:47.497Z,2.40
2023-02-11T05:42:16.432Z,5.03
2023-02-11T05:44:45.882Z,1.80
2023-02-11T05:47:15.634Z,2.77
2023-02-11T05:52:27.768Z,2.07
2023-02-11T05:54:59.465Z,2.57
2023-02-11T05:57:29.348Z,2.63
2023-02-11T05:59:59.306Z,4.03
2023-02-11T06:02:28.011Z,3.17
2023-02-11T06:04:59.767Z,2.87
2023-02-11T06:07:31.812Z,3.13
2023-02-11T06:10:03.132Z,3.87
2023-02-11T06:12:35.817Z,2.37
2023-02-11T06:15:07.870Z,5.23
2023-02-11T06:20:26.058Z,2.93
2023-02-11T06:22:53.587Z,2.80
2023-02-11T06:25:25.022Z,3.63
2023-02-11T06:27:55.596Z,2.50
2023-02-11T06:30:27.727Z,4.77
2023-02-11T06:33:02.001Z,3.20
2023-02-11T06:41:02.887Z,3.13
2023-02-11T06:43:35.040Z,3.67
2023-02-11T06:46:33.302Z,3.43
2023-02-11T06:49:05.626Z,4.63
2023-02-11T06:51:38.163Z,2.00
2023-02-11T06:54:13.669Z,4.53
2023-02-11T06:56:43.839Z,4.03
2023-02-11T06:59:21.399Z,2.67
2023-02-11T07:01:51.349Z,2.57
2023-02-11T07:04:22.499Z,2.57
2023-02-11T07:06:53.012Z,2.77
2023-02-11T07:09:22.946Z,3.20
2023-02-11T07:11:52.193Z,3.47
2023-02-11T07:14:23.205Z,2.67
2023-02-11T07:16:55.198Z,3.87
2023-02-11T07:19:26.763Z,3.83
2023-02-11T07:21:57.015Z,4.00
2023-02-11T07:24:29.962Z,3.27
2023-02-11T07:27:01.920Z,2.93
2023-02-11T07:29:36.270Z,3.67
2023-02-11T07:32:04.693Z,4.27
2023-02-11T07:34:37.427Z,3.63
2023-02-11T07:37:06.499Z,3.10
2023-02-11T07:39:41.504Z,3.73
2023-02-11T07:42:21.666Z,5.00
2023-02-11T07:44:52.433Z,3.20
2023-02-11T07:47:23.128Z,5.00
2023-02-11T07:52:38.030Z,4.10
2023-02-11T07:55:07.637Z,5.43
2023-02-11T07:57:43.485Z,5.00
2023-02-11T08:00:15.644Z,3.83
2023-02-11T08:02:46.408Z,5.10
2023-02-11T08:05:18.706Z,4.17
2023-02-11T08:07:49.972Z,4.20
2023-02-11T08:10:23.379Z,5.10
2023-02-11T08:12:54.057Z,3.53
2023-02-11T08:15:25.615Z,4.50
2023-02-11T08:17:56.483Z,3.53
2023-02-11T08:20:27.446Z,4.53
2023-02-11T08:22:58.961Z,4.43
2023-02-11T08:25:31.525Z,5.03
2023-02-11T08:28:00.682Z,5.53
2023-02-11T08:30:31.149Z,4.63
2023-02-11T08:33:02.723Z,6.90
2023-02-11T08:35:35.185Z,5.50
2023-02-11T08:38:04.598Z,4.13
2023-02-11T08:43:14.502Z,6.47
2023-02-11T08:45:45.051Z,5.60
2023-02-11T08:48:14.792Z,5.70
2023-02-11T08:50:43.705Z,6.53
2023-02-11T08:53:14.570Z,5.53
2023-02-11T08:55:45.471Z,5.83
2023-02-11T08:58:12.819Z,7.03
2023-02-11T09:00:47.584Z,4.83
2023-02-11T09:03:24.772Z,6.90
2023-02-11T09:05:57.384Z,7.67
2023-02-11T09:08:27.274Z,5.73
2023-02-11T09:10:59.755Z,5.30
2023-02-11T09:13:31.252Z,6.07
2023-02-11T09:16:02.943Z,5.03
2023-02-11T09:18:32.827Z,7.60
2023-02-11T09:21:13.647Z,6.77
2023-02-11T09:23:47.614Z,5.80
2023-02-11T09:29:03.954Z,6.57
2023-02-11T09:31:40.387Z,8.17
2023-02-11T09:34:14.916Z,7.63
2023-02-11T09:36:45.496Z,7.70
2023-02-11T09:39:16.582Z,7.93
2023-02-11T09:42:04.012Z,6.50
2023-02-11T09:44:38.763Z,5.77
2023-02-11T09:47:27.848Z,7.83
2023-02-11T09:50:03.841Z,7.50
2023-02-11T09:52:45.888Z,9.53
2023-02-11T09:58:18.739Z,22.43
2023-02-11T10:01:00.424Z,22.43
2023-02-11T10:03:32.662Z,17.10
2023-02-11T10:06:25.416Z,21.57
2023-02-11T10:09:05.295Z,23.23
2023-02-11T10:11:53.558Z,17.07
2023-02-11T10:14:41.865Z,19.87
2023-02-11T10:17:20.911Z,18.43
2023-02-11T10:20:05.450Z,26.23
2023-02-11T10:22:57.809Z,18.87
2023-02-11T10:25:50.063Z,19.30
2023-02-11T10:28:23.292Z,19.20
2023-02-11T10:31:10.402Z,17.10
2023-02-11T10:34:03.037Z,16.93
2023-02-11T10:36:38.389Z,13.30
2023-02-11T10:39:28.218Z,16.30
2023-02-11T10:42:05.190Z,18.20
2023-02-11T10:44:47.867Z,15.23
2023-02-11T10:50:25.704Z,15.33
2023-02-11T10:53:08.115Z,16.70
2023-02-11T10:55:43.446Z,15.03
2023-02-11T10:58:26.099Z,15.30
2023-02-11T11:00:58.994Z,16.77
2023-02-11T11:03:41.207Z,16.60
2023-02-11T11:06:13.566Z,11.90
2023-02-11T11:08:45.058Z,17.27
2023-02-11T11:11:18.896Z,18.30
2023-02-11T11:14:06.919Z,14.90
2023-02-11T11:16:39.422Z,17.83
2023-02-11T11:19:11.354Z,17.30
2023-02-11T11:21:45.176Z,17.47
2023-02-11T11:24:37.496Z,14.87
2023-02-11T11:27:06.928Z,17.60
2023-02-11T11:29:37.390Z,15.07
2023-02-11T11:32:31.906Z,15.83
2023-02-11T11:35:07.931Z,14.63
2023-02-11T11:37:38.575Z,16.17
2023-02-11T11:40:35.563Z,15.30
2023-02-11T11:43:20.190Z,13.57
2023-02-11T11:46:02.264Z,16.47
2023-02-11T11:48:34.084Z,17.43
2023-02-11T11:54:16.478Z,15.63
2023-02-11T11:57:05.015Z,17.50
2023-02-11T11:59:35.410Z,16.47
2023-02-11T12:02:08.526Z,15.20
2023-02-11T12:07:47.910Z,16.97
2023-02-11T12:10:26.935Z,16.33
2023-02-11T12:12:54.579Z,14.83
2023-02-11T12:15:38.558Z,15.07
2023-02-11T12:18:20.719Z,17.17
2023-02-11T12:20:54.944Z,13.60
2023-02-11T12:23:44.051Z,12.40
2023-02-11T12:29:13.657Z,15.80
2023-02-11T12:31:56.352Z,14.50
2023-02-11T12:34:30.932Z,14.30
2023-02-11T12:37:11.132Z,14.23
2023-02-11T12:39:39.530Z,17.20
2023-02-11T12:42:33.838Z,14.30
2023-02-11T12:45:15.476Z,13.23
2023-02-11T12:48:01.940Z,13.27
2023-02-11T12:50:34.513Z,12.77
2023-02-11T12:53:22.546Z,14.93
2023-02-11T12:55:55.938Z,14.03
2023-02-11T12:58:42.850Z,14.70
2023-02-11T13:01:18.738Z,15.87
2023-02-11T13:03:54.353Z,13.33
2023-02-11T13:06:42.835Z,15.13
2023-02-11T13:09:28.517Z,14.67
2023-02-11T13:11:58.223Z,13.70
2023-02-11T13:14:33.102Z,13.10
2023-02-11T13:17:02.552Z,13.47
2023-02-11T13:22:34.066Z,13.97
2023-02-11T13:25:22.175Z,13.73
2023-02-11T13:28:11.089Z,15.50
2023-02-11T13:30:58.584Z,15.53
2023-02-11T13:33:44.840Z,14.63
2023-02-11T13:36:38.060Z,15.20
2023-02-11T13:39:10.097Z,14.73
2023-02-11T13:41:45.421Z,13.50
2023-02-11T13:44:23.949Z,13.27
2023-02-11T13:47:07.261Z,18.47
2023-02-11T13:49:43.226Z,14.10
2023-02-11T13:52:28.564Z,13.57
2023-02-11T13:57:43.056Z,13.07
2023-02-11T14:00:44.226Z,17.23
2023-02-11T14:03:43.452Z,14.03
2023-02-11T14:06:40.993Z,15.90
2023-02-11T14:09:11.560Z,14.50
2023-02-11T14:11:55.324Z,17.57
2023-02-11T14:14:32.579Z,14.30
2023-02-11T14:17:18.908Z,15.27
2023-02-11T14:19:49.881Z,15.90
2023-02-11T14:22:44.308Z,16.90
2023-02-11T14:25:25.186Z,13.87
2023-02-11T14:28:09.399Z,18.57
2023-02-11T14:31:00.855Z,16.70
2023-02-11T14:33:43.734Z,17.33
2023-02-11T14:36:21.767Z,19.70
2023-02-11T14:39:01.711Z,20.40
2023-02-11T14:41:34.558Z,18.87
2023-02-11T14:44:05.628Z,15.73
2023-02-11T14:46:40.985Z,20.53
2023-02-11T14:49:19.498Z,20.83
2023-02-11T14:51:46.994Z,22.70
2023-02-11T14:57:18.908Z,20.90
2023-02-11T15:00:08.460Z,20.67
2023-02-11T15:02:41.627Z,23.40
2023-02-11T15:05:32.736Z,25.50
2023-02-11T15:08:10.026Z,25.00
2023-02-11T15:10:47.530Z,23.17
2023-02-11T15:13:22.790Z,23.57
2023-02-11T15:15:56.691Z,24.30
2023-02-11T15:18:31.771Z,22.20
2023-02-11T15:21:04.370Z,21.83
2023-02-11T15:23:36.480Z,26.23
2023-02-11T15:26:23.824Z,21.47
2023-02-11T15:28:56.782Z,19.43
2023-02-11T15:31:34.927Z,17.97
2023-02-11T15:36:51.423Z,18.40
2023-02-11T15:39:20.109Z,18.20
2023-02-11T15:41:51.181Z,17.97
2023-02-11T15:44:34.106Z,18.53
2023-02-11T15:47:06.030Z,16.03
2023-02-11T15:49:36.395Z,19.83
2023-02-11T15:52:07.708Z,15.40
2023-02-11T15:54:41.760Z,17.20
2023-02-11T15:57:11.958Z,15.63
2023-02-11T15:59:45.696Z,15.23
2023-02-11T16:02:32.257Z,17.13
2023-02-11T16:05:13.289Z,14.17
2023-02-11T16:08:10.573Z,15.40
2023-02-11T16:10:41.396Z,14.80
2023-02-11T16:13:09.919Z,13.10
2023-02-11T16:15:57.040Z,14.23
2023-02-11T16:18:47.162Z,14.03
2023-02-11T16:21:23.775Z,13.23
2023-02-11T16:23:58.967Z,14.13
2023-02-11T16:26:45.319Z,12.80
2023-02-11T16:29:20.042Z,14.60
2023-02-11T16:32:03.191Z,13.60
2023-02-11T16:34:35.362Z,12.00
2023-02-11T16:37:07.777Z,14.07
2023-02-11T16:39:40.193Z,15.93
2023-02-11T16:42:10.756Z,13.00
2023-02-11T16:44:43.643Z,12.47
2023-02-11T16:47:19.085Z,12.33
2023-02-11T16:49:47.316Z,12.53
2023-02-11T16:52:20.131Z,12.17
2023-02-11T16:54:51.628Z,12.57
2023-02-11T16:57:22.822Z,13.03
2023-02-11T16:59:53.813Z,11.13
2023-02-11T17:02:31.496Z,11.43
2023-02-11T17:05:03.927Z,11.33
2023-02-11T17:07:36.813Z,13.57
2023-02-11T17:10:17.928Z,12.80
2023-02-11T17:12:45.402Z,13.87
2023-02-11T17:15:15.773Z,13.30
2023-02-11T17:17:48.773Z,11.80
2023-02-11T17:23:02.719Z,11.93
2023-02-11T17:25:35.378Z,12.50
2023-02-11T17:28:08.523Z,11.80
2023-02-11T17:30:40.924Z,12.10
2023-02-11T17:33:08.522Z,12.40
2023-02-11T17:35:36.228Z,13.33
2023-02-11T17:38:08.288Z,13.47
2023-02-11T17:40:37.321Z,12.13
2023-02-11T17:43:06.877Z,12.10
2023-02-11T17:45:34.673Z,13.53
2023-02-11T17:48:07.488Z,13.07
2023-02-11T17:50:39.781Z,13.27
2023-02-11T17:53:08.623Z,12.87
2023-02-11T17:55:38.619Z,13.43
2023-02-11T17:58:08.197Z,13.23
2023-02-11T18:00:39.038Z,14.87
2023-02-11T18:03:10.825Z,14.23
2023-02-11T18:05:41.909Z,14.17
2023-02-11T18:08:14.243Z,14.70
2023-02-11T18:10:45.628Z,12.53
2023-02-11T18:13:18.464Z,15.03
2023-02-11T18:15:47.632Z,13.20
2023-02-11T18:18:18.774Z,12.07
2023-02-11T18:20:53.425Z,324.30
2023-02-11T18:23:27.349Z,190.23
2023-02-11T18:25:59.486Z,164.60
2023-02-11T18:28:30.619Z,161.87
2023-02-11T18:31:11.643Z,132.27
2023-02-11T18:33:44.201Z,99.27
2023-02-11T18:36:17.353Z,93.80
2023-02-11T18:38:47.426Z,76.10
2023-02-11T18:41:19.641Z,75.53
2023-02-11T18:43:49.427Z,73.03
2023-02-11T18:46:21.660Z,60.90
2023-02-11T18:48:56.265Z,67.97
2023-02-11T18:51:29.248Z,56.07
2023-02-11T18:53:59.985Z,49.27
2023-02-11T18:56:31.685Z,44.47
2023-02-11T18:59:04.590Z,47.90
2023-02-11T19:01:36.684Z,41.50
2023-02-11T19:04:11.610Z,39.33
2023-02-11T19:06:43.125Z,38.77
2023-02-11T19:09:23.651Z,35.13
2023-02-11T19:11:59.179Z,31.40
2023-02-11T19:14:29.537Z,32.77
2023-02-11T19:17:02.675Z,30.73
2023-02-11T19:19:41.094Z,28.90
2023-02-11T19:22:12.138Z,30.30
2023-02-11T19:24:43.003Z,28.47
2023-02-11T19:27:12.412Z,24.00
2023-02-11T19:29:40.883Z,26.20
2023-02-11T19:32:11.649Z,27.00
2023-02-11T19:34:41.811Z,26.23
2023-02-11T19:37:13.134Z,23.83
2023-02-11T19:39:45.797Z,21.50
2023-02-11T19:45:00.777Z,22.67
2023-02-11T19:47:31.675Z,19.93
2023-02-11T19:50:03.263Z,20.63
2023-02-11T19:52:33.782Z,21.63
2023-02-11T19:55:06.035Z,20.87
2023-02-11T19:57:35.814Z,21.30
2023-02-11T20:00:06.988Z,19.93
2023-02-11T20:02:42.283Z,18.33
2023-02-11T20:05:10.571Z,21.23
2023-02-11T20:07:42.057Z,19.63
2023-02-11T20:10:09.653Z,18.13
2023-02-11T20:12:40.900Z,21.93
2023-02-11T20:15:13.246Z,20.67
2023-02-11T20:17:43.389Z,18.70
2023-02-11T20:20:16.013Z,18.63
2023-02-11T20:22:47.778Z,17.57
2023-02-11T20:25:20.780Z,18.10
2023-02-11T20:27:55.806Z,17.53
2023-02-11T20:30:25.733Z,16.03
2023-02-11T20:32:57.707Z,17.13
2023-02-11T20:35:29.820Z,17.60
2023-02-11T20:37:59.383Z,16.47
2023-02-11T20:40:30.085Z,15.97
2023-02-11T20:43:00.228Z,21.17
2023-02-11T20:45:33.879Z,18.30
2023-02-11T20:48:03.533Z,16.97
2023-02-11T20:50:33.433Z,14.90
2023-02-11T20:53:07.605Z,17.17
2023-02-11T20:55:42.658Z,16.93
2023-02-11T20:58:15.408Z,14.00
2023-02-11T21:00:47.321Z,16.40
2023-02-11T21:03:17.633Z,16.53
2023-02-11T21:05:47.066Z,20.30
2023-02-11T21:08:18.692Z,15.73
2023-02-11T21:10:52.656Z,16.57
2023-02-11T21:13:21.998Z,16.50
2023-02-11T21:16:01.302Z,16.80
2023-02-11T21:18:35.005Z,15.60
2023-02-11T21:21:35.066Z,16.37
2023-02-11T21:24:10.702Z,15.63
2023-02-11T21:26:42.656Z,18.40
2023-02-11T21:29:14.150Z,16.30
2023-02-11T21:31:45.772Z,14.97
2023-02-11T21:34:21.244Z,18.10
2023-02-11T21:36:51.421Z,15.37
2023-02-11T21:42:11.181Z,15.50
2023-02-11T21:44:41.224Z,14.73
2023-02-11T21:47:14.250Z,15.97
2023-02-11T21:49:46.589Z,17.47
2023-02-11T21:52:16.486Z,14.73
2023-02-11T21:57:33.302Z,16.33
2023-02-11T22:00:01.740Z,15.33
2023-02-11T22:02:31.269Z,15.13
2023-02-11T22:05:03.535Z,14.83
2023-02-11T22:07:34.262Z,17.67
2023-02-11T22:10:05.909Z,15.33
2023-02-11T22:12:36.335Z,16.40
2023-02-11T22:15:06.150Z,14.93
2023-02-11T22:17:37.762Z,14.20
2023-02-11T22:20:08.965Z,14.97
2023-02-11T22:22:41.224Z,13.90
2023-02-11T22:25:15.450Z,13.67
2023-02-11T22:27:46.375Z,13.13
2023-02-11T22:30:17.418Z,15.30
2023-02-11T22:32:49.695Z,15.43
2023-02-11T22:35:24.994Z,13.67
2023-02-11T22:37:57.309Z,13.93
2023-02-11T22:40:34.186Z,13.37
2023-02-11T22:43:02.432Z,13.97
2023-02-11T22:45:36.523Z,14.63
2023-02-11T22:50:49.429Z,13.53
2023-02-11T22:53:23.488Z,13.67
2023-02-11T22:55:56.602Z,13.60
2023-02-11T22:58:28.364Z,12.93
2023-02-11T23:01:00.415Z,13.10
2023-02-11T23:03:32.734Z,13.60
2023-02-11T23:06:07.820Z,13.17
2023-02-11T23:08:41.900Z,13.13
2023-02-11T23:11:15.038Z,13.03
2023-02-11T23:13:48.007Z,12.43
2023-02-11T23:16:22.839Z,12.17
2023-02-11T23:18:54.501Z,12.80
2023-02-11T23:24:15.921Z,11.90
2023-02-11T23:26:51.152Z,12.80
2023-02-11T23:29:23.490Z,11.77
2023-02-11T23:31:53.391Z,12.00
2023-02-11T23:34:28.814Z,12.70
2023-02-11T23:37:02.818Z,11.83
2023-02-11T23:39:33.617Z,12.20
2023-02-11T23:42:04.967Z,11.70
2023-02-11T23:44:37.399Z,12.43
2023-02-11T23:47:08.516Z,12.33
2023-02-11T23:49:40.615Z,12.03
2023-02-11T23:52:17.688Z,13.00
2023-02-11T23:54:56.057Z,13.83
2023-02-11T23:57:25.535Z,12.47
2023-02-11T23:59:56.795Z,11.33
